Schneifelwetter: Wetterstation Hallschlag, 537 m . NN
Wetterdaten: Mittwoch, 01.06.2011
Datum Zeit Temp. A. Feuchte A. Luftdruck Regen Wind Richtung Richtung Sonnenschein Helligkeit T Regen Taupunkt Windchill
01.06.2011 00:01 7,6 C 91 % 1021 hPa 0,0 l/m 2,4 km/h (1 Bft) W22.5 275 0 min 0 lux 0,00 min 6,2 C 7,6 C
01.06.2011 00:16 7,6 C 92 % 1021 hPa 0,0 l/m 9,4 km/h (2 Bft) W22.5 265 0 min 0 lux 0,00 min 6,4 C 5,3 C
01.06.2011 00:31 7,5 C 92 % 1021 hPa 0,9 l/m 12,8 km/h (3 Bft) W-NW45 290 0 min 0 lux 15,00 min 6,3 C 3,2 C
01.06.2011 00:46 7,5 C 92 % 1021 hPa 0,0 l/m 2,1 km/h (1 Bft) N-NW45 340 0 min 0 lux 0,00 min 6,3 C 7,5 C
01.06.2011 01:01 7,6 C 92 % 1021 hPa 0,0 l/m 7,3 km/h (2 Bft) N-NW22.5 340 0 min 0 lux 0,00 min 6,4 C 6,9 C
01.06.2011 01:16 7,6 C 92 % 1022 hPa 0,0 l/m 0,7 km/h (0 Bft) N-NW45 335 0 min 0 lux 0,00 min 6,4 C 7,6 C
01.06.2011 01:31 7,7 C 92 % 1022 hPa 0,0 l/m 9,0 km/h (2 Bft) NW45 320 0 min 0 lux 0,00 min 6,5 C 5,7 C
01.06.2011 01:46 7,8 C 93 % 1022 hPa 0,0 l/m 17,4 km/h (3 Bft) NW22.5 325 0 min 0 lux 0,00 min 6,7 C 1,4 C
01.06.2011 02:01 7,8 C 93 % 1022 hPa 0,0 l/m 17,6 km/h (3 Bft) N45 355 0 min 0 lux 0,00 min 6,7 C 1,4 C
01.06.2011 02:16 7,9 C 93 % 1022 hPa 0,0 l/m 16,0 km/h (3 Bft) N67.5 10 0 min 0 lux 0,00 min 6,8 C 2,1 C
01.06.2011 02:31 7,9 C 93 % 1022 hPa 0,0 l/m 21,1 km/h (4 Bft) N45 5 0 min 0 lux 0,00 min 6,8 C 0,2 C
01.06.2011 02:46 7,9 C 93 % 1022 hPa 0,0 l/m 18,3 km/h (3 Bft) N-NW45 345 0 min 0 lux 0,00 min 6,8 C 1,2 C
01.06.2011 03:01 7,8 C 93 % 1022 hPa 0,0 l/m 16,2 km/h (3 Bft) N45 355 0 min 0 lux 0,00 min 6,7 C 1,9 C
01.06.2011 03:16 7,9 C 93 % 1022 hPa 0,0 l/m 15,6 km/h (3 Bft) N67.5 350 0 min 0 lux 0,00 min 6,8 C 2,3 C
01.06.2011 03:31 7,9 C 93 % 1022 hPa 0,0 l/m 21,6 km/h (4 Bft) N45 360 0 min 0 lux 0,00 min 6,8 C 0,0 C
01.06.2011 03:46 7,8 C 93 % 1022 hPa 0,0 l/m 27,8 km/h (4 Bft) N67.5 360 0 min 0 lux 0,00 min 6,7 C -1,9 C
01.06.2011 04:01 7,7 C 94 % 1022 hPa 0,0 l/m 25,5 km/h (4 Bft) N45 10 0 min 0 lux 0,00 min 6,8 C -1,4 C
01.06.2011 04:16 7,7 C 93 % 1023 hPa 0,0 l/m 22,1 km/h (4 Bft) N-NO45 20 0 min 0 lux 0,00 min 6,6 C -0,4 C
01.06.2011 04:31 7,6 C 93 % 1023 hPa 0,0 l/m 24,1 km/h (4 Bft) N22.5 10 0 min 0 lux 0,00 min 6,5 C -1,2 C
01.06.2011 04:46 7,6 C 93 % 1023 hPa 0,0 l/m 30,6 km/h (5 Bft) N67.5 5 0 min 0 lux 0,00 min 6,5 C -2,9 C
01.06.2011 05:01 7,4 C 92 % 1023 hPa 0,0 l/m 20,9 km/h (4 Bft) N-NO22.5 15 0 min 0 lux 0,00 min 6,2 C -0,4 C
01.06.2011 05:16 7,2 C 92 % 1023 hPa 0,0 l/m 21,1 km/h (4 Bft) N45 10 0 min 58 lux 0,00 min 6,0 C -0,7 C
01.06.2011 05:31 7,0 C 91 % 1023 hPa 0,0 l/m 23,5 km/h (4 Bft) N67.5 5 0 min 215 lux 0,00 min 5,6 C -1,8 C
01.06.2011 05:46 6,9 C 91 % 1023 hPa 0,0 l/m 23,8 km/h (4 Bft) N67.5 5 0 min 531 lux 0,00 min 5,5 C -2,0 C
01.06.2011 06:01 6,5 C 91 % 1024 hPa 0,0 l/m 25,1 km/h (4 Bft) N-NO22.5 15 0 min 1,18 klux 0,00 min 5,1 C -2,9 C
01.06.2011 06:16 6,3 C 91 % 1024 hPa 0,0 l/m 23,6 km/h (4 Bft) N45 360 0 min 2,12 klux 0,00 min 4,9 C -2,7 C
01.06.2011 06:31 6,2 C 91 % 1024 hPa 0,0 l/m 27,1 km/h (4 Bft) N-NO45 15 0 min 2,71 klux 0,00 min 4,8 C -3,9 C
01.06.2011 06:46 6,1 C 92 % 1024 hPa 0,0 l/m 27,4 km/h (4 Bft) N-NO45 20 0 min 3,63 klux 0,00 min 4,9 C -4,1 C
01.06.2011 07:01 6,3 C 91 % 1024 hPa 0,0 l/m 25,6 km/h (4 Bft) N-NO67.5 25 0 min 8,61 klux 0,00 min 4,9 C -3,4 C
01.06.2011 07:16 6,5 C 91 % 1024 hPa 0,0 l/m 25,9 km/h (4 Bft) N-NO45 15 0 min 10,9 klux 0,00 min 5,1 C -3,2 C
01.06.2011 07:31 6,8 C 91 % 1025 hPa 0,0 l/m 26,0 km/h (4 Bft) N-NO22.5 20 0 min 12,1 klux 0,00 min 5,4 C -2,8 C
01.06.2011 07:46 7,0 C 89 % 1024 hPa 0,0 l/m 31,3 km/h (5 Bft) N45 5 0 min 18,7 klux 0,00 min 5,3 C -3,9 C
01.06.2011 08:01 7,4 C 88 % 1025 hPa 0,0 l/m 24,3 km/h (4 Bft) N-NO22.5 25 0 min 21,7 klux 0,00 min 5,5 C -1,5 C
01.06.2011 08:15 7,7 C 87 % 1025 hPa 0,0 l/m 33,1 km/h (5 Bft) N-NO45 25 0 min 36,9 klux 0,00 min 5,7 C -3,3 C
01.06.2011 08:31 8,0 C 85 % 1025 hPa 0,0 l/m 25,8 km/h (4 Bft) N45 10 0 min 24,1 klux 0,00 min 5,6 C -1,1 C
01.06.2011 08:46 8,8 C 83 % 1025 hPa 0,0 l/m 27,8 km/h (4 Bft) N-NO22.5 30 15 min 62,1 klux 0,00 min 6,1 C -0,5 C
01.06.2011 09:01 8,8 C 80 % 1025 hPa 0,0 l/m 30,5 km/h (5 Bft) NO22.5 35 0 min 52,1 klux 0,00 min 5,5 C -1,1 C
01.06.2011 09:16 8,1 C 82 % 1025 hPa 0,0 l/m 29,6 km/h (5 Bft) N22.5 10 15 min 56,5 klux 0,00 min 5,2 C -1,9 C
01.06.2011 09:31 8,8 C 80 % 1025 hPa 0,0 l/m 31,2 km/h (5 Bft) NO67.5 45 15 min 61,0 klux 0,00 min 5,5 C -1,3 C
01.06.2011 09:45 9,6 C 77 % 1025 hPa 0,0 l/m 33,9 km/h (5 Bft) N-NO45 30 14 min 67,4 klux 0,00 min 5,8 C -0,7 C
01.06.2011 10:00 9,9 C 75 % 1025 hPa 0,0 l/m 29,3 km/h (5 Bft) NO45 45 15 min 71,2 klux 0,00 min 5,7 C 0,7 C
01.06.2011 10:16 10,1 C 75 % 1025 hPa 0,0 l/m 27,5 km/h (4 Bft) N45 5 16 min 88,7 klux 0,00 min 5,9 C 1,4 C
01.06.2011 10:31 9,7 C 73 % 1025 hPa 0,0 l/m 32,4 km/h (5 Bft) N45 5 15 min 75,5 klux 0,00 min 5,1 C -0,3 C
01.06.2011 10:46 11,0 C 72 % 1025 hPa 0,0 l/m 31,8 km/h (5 Bft) NO45 40 15 min 83,4 klux 0,00 min 6,2 C 1,7 C
01.06.2011 11:01 10,9 C 69 % 1025 hPa 0,0 l/m 31,0 km/h (5 Bft) N45 10 15 min 90,8 klux 0,00 min 5,4 C 1,7 C
01.06.2011 11:16 10,7 C 71 % 1025 hPa 0,0 l/m 27,0 km/h (4 Bft) N-NO22.5 25 15 min 82,6 klux 0,00 min 5,7 C 2,3 C
01.06.2011 11:30 12,1 C 65 % 1025 hPa 0,0 l/m 33,4 km/h (5 Bft) N-NO67.5 20 14 min 88,9 klux 0,00 min 5,7 C 3,0 C
01.06.2011 11:46 13,1 C 66 % 1026 hPa 0,0 l/m 38,2 km/h (5 Bft) N-NO22.5 30 16 min 102 klux 0,00 min 6,9 C 3,7 C
01.06.2011 12:01 12,4 C 63 % 1026 hPa 0,0 l/m 29,4 km/h (5 Bft) N22.5 360 15 min 100 klux 0,00 min 5,6 C 4,1 C
01.06.2011 12:16 12,0 C 62 % 1026 hPa 0,0 l/m 43,4 km/h (6 Bft) NO45 45 15 min 103 klux 0,00 min 4,9 C 1,4 C
01.06.2011 12:31 12,3 C 64 % 1026 hPa 0,0 l/m 39,6 km/h (6 Bft) N-NO45 15 15 min 93,9 klux 0,00 min 5,7 C 2,4 C
01.06.2011 12:46 12,8 C 60 % 1026 hPa 0,0 l/m 36,9 km/h (5 Bft) N-NO45 30 15 min 99,0 klux 0,00 min 5,2 C 3,5 C
01.06.2011 13:01 12,9 C 60 % 1026 hPa 0,0 l/m 35,9 km/h (5 Bft) NO45 35 15 min 106 klux 0,00 min 5,3 C 3,8 C
01.06.2011 13:16 12,8 C 62 % 1026 hPa 0,0 l/m 32,4 km/h (5 Bft) N-NO45 15 15 min 100 klux 0,00 min 5,7 C 4,2 C
01.06.2011 13:31 12,7 C 57 % 1026 hPa 0,0 l/m 36,6 km/h (5 Bft) N22.5 5 15 min 95,5 klux 0,00 min 4,4 C 3,4 C
01.06.2011 13:46 12,8 C 57 % 1026 hPa 0,0 l/m 44,7 km/h (6 Bft) N-NO45 20 15 min 101 klux 0,00 min 4,5 C 2,5 C
01.06.2011 14:01 13,2 C 58 % 1026 hPa 0,0 l/m 38,8 km/h (5 Bft) N-NO45 25 15 min 94,5 klux 0,00 min 5,1 C 3,8 C
01.06.2011 14:16 13,6 C 56 % 1026 hPa 0,0 l/m 38,6 km/h (5 Bft) NO67.5 35 15 min 91,6 klux 0,00 min 5,0 C 4,4 C
01.06.2011 14:31 13,4 C 55 % 1026 hPa 0,0 l/m 34,9 km/h (5 Bft) N-NO22.5 25 15 min 88,7 klux 0,00 min 4,5 C 4,6 C
01.06.2011 14:45 13,6 C 56 % 1026 hPa 0,0 l/m 38,3 km/h (5 Bft) NO67.5 40 14 min 87,8 klux 0,00 min 5,0 C 4,4 C
01.06.2011 15:01 13,8 C 56 % 1026 hPa 0,0 l/m 31,7 km/h (5 Bft) NO67.5 50 16 min 86,5 klux 0,00 min 5,2 C 5,7 C
01.06.2011 15:16 14,0 C 55 % 1026 hPa 0,0 l/m 35,4 km/h (5 Bft) NO45 50 15 min 88,0 klux 0,00 min 5,1 C 5,4 C
01.06.2011 15:31 13,8 C 52 % 1026 hPa 0,0 l/m 33,7 km/h (5 Bft) N-NO22.5 25 15 min 83,2 klux 0,00 min 4,1 C 5,4 C
01.06.2011 15:46 14,0 C 53 % 1026 hPa 0,0 l/m 31,7 km/h (5 Bft) N-NO45 30 15 min 80,9 klux 0,00 min 4,6 C 6,0 C
01.06.2011 16:01 14,2 C 54 % 1026 hPa 0,0 l/m 37,1 km/h (5 Bft) NO67.5 50 15 min 78,9 klux 0,00 min 5,0 C 5,5 C
01.06.2011 16:15 14,3 C 52 % 1026 hPa 0,0 l/m 35,0 km/h (5 Bft) NO22.5 40 14 min 75,5 klux 0,00 min 4,6 C 5,9 C
01.06.2011 16:30 14,3 C 55 % 1026 hPa 0,0 l/m 36,1 km/h (5 Bft) NO45 40 15 min 72,3 klux 0,00 min 5,4 C 5,8 C
01.06.2011 16:46 14,4 C 51 % 1026 hPa 0,0 l/m 32,6 km/h (5 Bft) NO67.5 45 16 min 69,0 klux 0,00 min 4,4 C 6,4 C
01.06.2011 17:01 14,6 C 50 % 1026 hPa 0,0 l/m 36,5 km/h (5 Bft) N-NO22.5 30 15 min 67,6 klux 0,00 min 4,3 C 6,1 C
01.06.2011 17:16 14,5 C 51 % 1026 hPa 0,0 l/m 34,4 km/h (5 Bft) N-NO22.5 20 15 min 65,1 klux 0,00 min 4,5 C 6,3 C
01.06.2011 17:31 14,7 C 50 % 1026 hPa 0,0 l/m 32,0 km/h (5 Bft) N-NO45 25 15 min 61,9 klux 0,00 min 4,4 C 6,9 C
01.06.2011 17:46 14,6 C 51 % 1025 hPa 0,0 l/m 31,7 km/h (5 Bft) N-NO45 25 15 min 56,9 klux 0,00 min 4,6 C 6,8 C
01.06.2011 18:00 14,8 C 50 % 1026 hPa 0,0 l/m 30,0 km/h (5 Bft) N-NO22.5 30 14 min 53,9 klux 0,00 min 4,5 C 7,4 C
01.06.2011 18:16 14,6 C 49 % 1026 hPa 0,0 l/m 30,0 km/h (5 Bft) NO45 35 0 min 51,4 klux 0,00 min 4,0 C 7,1 C
01.06.2011 18:31 14,7 C 50 % 1025 hPa 0,0 l/m 35,3 km/h (5 Bft) N-NO67.5 25 0 min 47,3 klux 0,00 min 4,4 C 6,5 C
01.06.2011 18:46 14,6 C 49 % 1026 hPa 0,0 l/m 28,5 km/h (4 Bft) N-NO67.5 30 0 min 44,6 klux 0,00 min 4,0 C 7,4 C
01.06.2011 19:01 14,5 C 49 % 1026 hPa 0,0 l/m 29,0 km/h (5 Bft) N-NO45 15 0 min 41,3 klux 0,00 min 3,9 C 7,2 C
01.06.2011 19:16 14,5 C 48 % 1026 hPa 0,0 l/m 26,0 km/h (4 Bft) N22.5 10 0 min 37,1 klux 0,00 min 3,6 C 7,7 C
01.06.2011 19:30 14,5 C 48 % 1026 hPa 0,0 l/m 31,8 km/h (5 Bft) N-NO67.5 30 0 min 33,3 klux 0,00 min 3,6 C 6,7 C
01.06.2011 19:46 14,2 C 49 % 1026 hPa 0,0 l/m 23,3 km/h (4 Bft) N-NO67.5 20 0 min 30,2 klux 0,00 min 3,6 C 7,9 C
01.06.2011 20:01 13,6 C 49 % 1026 hPa 0,0 l/m 27,5 km/h (4 Bft) NO45 35 0 min 25,8 klux 0,00 min 3,1 C 6,2 C
01.06.2011 20:16 13,4 C 51 % 1026 hPa 0,0 l/m 25,2 km/h (4 Bft) N-NO22.5 20 0 min 21,1 klux 0,00 min 3,5 C 6,4 C
01.06.2011 20:31 13,0 C 52 % 1026 hPa 0,0 l/m 29,9 km/h (5 Bft) N-NO67.5 20 0 min 15,7 klux 0,00 min 3,4 C 4,9 C
01.06.2011 20:46 12,6 C 53 % 1026 hPa 0,0 l/m 25,0 km/h (4 Bft) N-NO22.5 25 0 min 12,8 klux 0,00 min 3,3 C 5,4 C
01.06.2011 21:00 12,3 C 54 % 1026 hPa 0,0 l/m 20,3 km/h (4 Bft) N-NO22.5 25 0 min 4,12 klux 0,00 min 3,3 C 6,2 C
01.06.2011 21:16 12,0 C 56 % 1027 hPa 0,0 l/m 19,8 km/h (3 Bft) N-NO22.5 25 0 min 2,86 klux 0,00 min 3,5 C 5,9 C
01.06.2011 21:31 11,5 C 57 % 1026 hPa 0,0 l/m 14,1 km/h (3 Bft) N-NO22.5 25 0 min 1,83 klux 0,00 min 3,3 C 7,3 C
01.06.2011 21:46 11,0 C 59 % 1027 hPa 0,0 l/m 11,0 km/h (2 Bft) N-NO 30 0 min 699 lux 0,00 min 3,3 C 8,2 C
01.06.2011 22:01 10,6 C 61 % 1027 hPa 0,0 l/m 12,0 km/h (2 Bft) N-NO 15 0 min 154 lux 0,00 min 3,4 C 7,2 C
01.06.2011 22:16 10,2 C 61 % 1027 hPa 0,0 l/m 10,2 km/h (2 Bft) N-NO 25 0 min 38 lux 0,00 min 3,0 C 7,7 C
01.06.2011 22:30 9,8 C 63 % 1027 hPa 0,0 l/m 7,9 km/h (2 Bft) N-NO 20 0 min 7 lux 0,00 min 3,1 C 8,7 C
01.06.2011 22:46 9,4 C 64 % 1028 hPa 0,0 l/m 7,2 km/h (2 Bft) N-NO 20 0 min 0 lux 0,00 min 2,9 C 8,8 C
01.06.2011 23:01 9,0 C 65 % 1028 hPa 0,0 l/m 8,4 km/h (2 Bft) N-NO 20 0 min 0 lux 0,00 min 2,8 C 7,5 C
01.06.2011 23:16 8,9 C 66 % 1028 hPa 0,0 l/m 7,2 km/h (2 Bft) N-NO 20 0 min 0 lux 0,00 min 2,9 C 8,3 C
01.06.2011 23:31 8,4 C 66 % 1028 hPa 0,0 l/m 2,7 km/h (1 Bft) N-NO 20 0 min 0 lux 0,00 min 2,4 C 8,4 C
01.06.2011 23:46 8,0 C 68 % 1028 hPa 0,0 l/m 6,5 km/h (2 Bft) N-NO 20 0 min 0 lux 0,00 min 2,5 C 7,9 C
_ Min-Zeit 06:46 19:16 00:01 - 01:16 - - - - - 23:31 06:46
Minimum _ 6,1 C 48 % 1021 hPa - 0,7 km/h (0 Bft) - - - - - 2,4 C -4,1 C
_ Max-Zeit 18:00 04:01 22:46 00:31 13:46 - - 10:16 13:01 00:31 11:46 22:46
Maximum _ 14,8 C 94 % 1028 hPa 0,9 l/m 44,7 km/h
N-NO (6 Bft)
- - 16 min 106 klux 15,00 min 6,9 C 8,8 C
Durchschnitt _ 10,5 C 71 % 1025 hPa #0,9 l/m 25,3 km/h (4 Bft) N-NO - #9:14 h 37,5 klux #15 min. 5,1 C 3,2 C